sensor_id;sensor_type;location;lat;lon;timestamp;temperature;humidity
57709;SHT35;42558;52.388;13.390;2022-12-11T00:01:22;-1.93;83.32
57709;SHT35;42558;52.388;13.390;2022-12-11T00:03:52;-1.97;83.06
57709;SHT35;42558;52.388;13.390;2022-12-11T00:06:22;-1.95;83.32
57709;SHT35;42558;52.388;13.390;2022-12-11T00:08:53;-1.93;83.59
57709;SHT35;42558;52.388;13.390;2022-12-11T00:11:24;-1.94;83.42
57709;SHT35;42558;52.388;13.390;2022-12-11T00:13:54;-1.95;83.37
57709;SHT35;42558;52.388;13.390;2022-12-11T00:16:23;-1.95;83.15
57709;SHT35;42558;52.388;13.390;2022-12-11T00:18:54;-1.91;83.52
57709;SHT35;42558;52.388;13.390;2022-12-11T00:21:24;-1.93;83.28
57709;SHT35;42558;52.388;13.390;2022-12-11T00:23:54;-1.93;83.26
57709;SHT35;42558;52.388;13.390;2022-12-11T00:26:24;-1.93;83.34
57709;SHT35;42558;52.388;13.390;2022-12-11T00:28:54;-1.96;83.38
57709;SHT35;42558;52.388;13.390;2022-12-11T00:31:24;-2.01;83.21
57709;SHT35;42558;52.388;13.390;2022-12-11T00:33:54;-2.02;83.20
57709;SHT35;42558;52.388;13.390;2022-12-11T00:36:25;-2.02;83.28
57709;SHT35;42558;52.388;13.390;2022-12-11T00:38:55;-2.05;83.32
57709;SHT35;42558;52.388;13.390;2022-12-11T00:41:25;-2.03;83.59
57709;SHT35;42558;52.388;13.390;2022-12-11T00:43:55;-2.05;83.78
57709;SHT35;42558;52.388;13.390;2022-12-11T00:46:25;-2.05;83.90
57709;SHT35;42558;52.388;13.390;2022-12-11T00:48:55;-2.04;84.08
57709;SHT35;42558;52.388;13.390;2022-12-11T00:51:24;-2.04;84.16
57709;SHT35;42558;52.388;13.390;2022-12-11T00:53:54;-2.03;84.16
57709;SHT35;42558;52.388;13.390;2022-12-11T00:56:24;-2.04;84.07
57709;SHT35;42558;52.388;13.390;2022-12-11T00:58:54;-2.06;84.00
57709;SHT35;42558;52.388;13.390;2022-12-11T01:01:24;-2.12;83.76
57709;SHT35;42558;52.388;13.390;2022-12-11T01:03:54;-2.16;83.64
57709;SHT35;42558;52.388;13.390;2022-12-11T01:06:25;-2.17;83.64
57709;SHT35;42558;52.388;13.390;2022-12-11T01:08:55;-2.16;83.73
57709;SHT35;42558;52.388;13.390;2022-12-11T01:11:47;-2.15;83.81
57709;SHT35;42558;52.388;13.390;2022-12-11T01:14:14;-2.13;83.81
57709;SHT35;42558;52.388;13.390;2022-12-11T01:16:44;-2.14;83.74
57709;SHT35;42558;52.388;13.390;2022-12-11T01:19:14;-2.13;83.84
57709;SHT35;42558;52.388;13.390;2022-12-11T01:21:44;-2.14;83.70
57709;SHT35;42558;52.388;13.390;2022-12-11T01:24:14;-2.15;83.68
57709;SHT35;42558;52.388;13.390;2022-12-11T01:26:43;-2.15;83.75
57709;SHT35;42558;52.388;13.390;2022-12-11T01:29:13;-2.14;83.55
57709;SHT35;42558;52.388;13.390;2022-12-11T01:31:43;-2.12;83.63
57709;SHT35;42558;52.388;13.390;2022-12-11T01:34:13;-2.10;83.56
57709;SHT35;42558;52.388;13.390;2022-12-11T01:36:43;-2.07;83.81
57709;SHT35;42558;52.388;13.390;2022-12-11T01:39:11;-2.03;84.07
57709;SHT35;42558;52.388;13.390;2022-12-11T01:41:40;-2.03;84.06
57709;SHT35;42558;52.388;13.390;2022-12-11T01:46:44;-2.05;83.64
57709;SHT35;42558;52.388;13.390;2022-12-11T01:49:14;-2.09;83.59
57709;SHT35;42558;52.388;13.390;2022-12-11T01:51:52;-2.12;83.62
57709;SHT35;42558;52.388;13.390;2022-12-11T01:54:29;-2.15;83.65
57709;SHT35;42558;52.388;13.390;2022-12-11T01:57:02;-2.17;83.71
57709;SHT35;42558;52.388;13.390;2022-12-11T01:59:38;-2.11;83.89
57709;SHT35;42558;52.388;13.390;2022-12-11T02:02:21;-2.08;84.01
57709;SHT35;42558;52.388;13.390;2022-12-11T02:05:03;-2.07;84.14
57709;SHT35;42558;52.388;13.390;2022-12-11T02:07:44;-2.05;84.31
57709;SHT35;42558;52.388;13.390;2022-12-11T02:10:19;-2.07;84.14
57709;SHT35;42558;52.388;13.390;2022-12-11T02:15:53;-2.09;84.07
57709;SHT35;42558;52.388;13.390;2022-12-11T02:18:44;-2.11;83.94
57709;SHT35;42558;52.388;13.390;2022-12-11T02:21:47;-2.05;84.10
57709;SHT35;42558;52.388;13.390;2022-12-11T02:24:35;-2.02;84.19
57709;SHT35;42558;52.388;13.390;2022-12-11T02:27:41;-2.01;84.25
57709;SHT35;42558;52.388;13.390;2022-12-11T02:30:24;-2.08;84.07
57709;SHT35;42558;52.388;13.390;2022-12-11T02:32:56;-2.05;84.20
57709;SHT35;42558;52.388;13.390;2022-12-11T02:35:32;-2.03;84.23
57709;SHT35;42558;52.388;13.390;2022-12-11T02:38:13;-2.07;84.16
57709;SHT35;42558;52.388;13.390;2022-12-11T02:40:51;-2.08;84.16
57709;SHT35;42558;52.388;13.390;2022-12-11T02:43:25;-2.07;84.24
57709;SHT35;42558;52.388;13.390;2022-12-11T02:45:57;-2.07;84.30
57709;SHT35;42558;52.388;13.390;2022-12-11T02:48:27;-2.05;84.29
57709;SHT35;42558;52.388;13.390;2022-12-11T02:50:58;-2.03;84.32
57709;SHT35;42558;52.388;13.390;2022-12-11T02:53:31;-2.01;84.40
57709;SHT35;42558;52.388;13.390;2022-12-11T02:56:12;-1.96;84.54
57709;SHT35;42558;52.388;13.390;2022-12-11T02:58:53;-1.98;84.48
57709;SHT35;42558;52.388;13.390;2022-12-11T03:01:29;-2.04;84.23
57709;SHT35;42558;52.388;13.390;2022-12-11T03:03:59;-2.03;84.46
57709;SHT35;42558;52.388;13.390;2022-12-11T03:06:34;-2.02;84.47
57709;SHT35;42558;52.388;13.390;2022-12-11T03:09:12;-2.03;84.55
57709;SHT35;42558;52.388;13.390;2022-12-11T03:11:42;-2.04;84.59
57709;SHT35;42558;52.388;13.390;2022-12-11T03:14:11;-2.03;84.67
57709;SHT35;42558;52.388;13.390;2022-12-11T03:17:47;-2.07;84.55
57709;SHT35;42558;52.388;13.390;2022-12-11T03:23:19;-2.17;84.73
57709;SHT35;42558;52.388;13.390;2022-12-11T03:26:02;-2.18;84.84
57709;SHT35;42558;52.388;13.390;2022-12-11T03:31:37;-2.13;85.11
57709;SHT35;42558;52.388;13.390;2022-12-11T03:34:13;-2.10;85.24
57709;SHT35;42558;52.388;13.390;2022-12-11T03:36:59;-2.11;85.27
57709;SHT35;42558;52.388;13.390;2022-12-11T03:39:32;-2.10;85.31
57709;SHT35;42558;52.388;13.390;2022-12-11T03:42:10;-2.09;85.38
57709;SHT35;42558;52.388;13.390;2022-12-11T03:44:45;-2.08;85.38
57709;SHT35;42558;52.388;13.390;2022-12-11T03:47:19;-2.10;85.30
57709;SHT35;42558;52.388;13.390;2022-12-11T03:49:54;-2.10;85.37
57709;SHT35;42558;52.388;13.390;2022-12-11T03:52:27;-2.12;85.31
57709;SHT35;42558;52.388;13.390;2022-12-11T03:54:59;-2.13;85.32
57709;SHT35;42558;52.388;13.390;2022-12-11T03:57:33;-2.13;85.36
57709;SHT35;42558;52.388;13.390;2022-12-11T04:00:08;-2.18;85.45
57709;SHT35;42558;52.388;13.390;2022-12-11T04:02:43;-2.18;85.60
57709;SHT35;42558;52.388;13.390;2022-12-11T04:05:42;-2.12;85.67
57709;SHT35;42558;52.388;13.390;2022-12-11T04:08:18;-2.14;85.53
57709;SHT35;42558;52.388;13.390;2022-12-11T04:10:50;-2.14;85.65
57709;SHT35;42558;52.388;13.390;2022-12-11T04:13:39;-2.14;85.68
57709;SHT35;42558;52.388;13.390;2022-12-11T04:16:10;-2.15;85.73
57709;SHT35;42558;52.388;13.390;2022-12-11T04:18:40;-2.14;85.80
57709;SHT35;42558;52.388;13.390;2022-12-11T04:21:28;-2.10;85.89
57709;SHT35;42558;52.388;13.390;2022-12-11T04:24:17;-2.11;85.87
57709;SHT35;42558;52.388;13.390;2022-12-11T04:26:47;-2.13;85.90
57709;SHT35;42558;52.388;13.390;2022-12-11T04:29:15;-2.12;85.91
57709;SHT35;42558;52.388;13.390;2022-12-11T04:31:44;-2.12;85.94
57709;SHT35;42558;52.388;13.390;2022-12-11T04:34:12;-2.14;85.86
57709;SHT35;42558;52.388;13.390;2022-12-11T04:36:41;-2.11;85.96
57709;SHT35;42558;52.388;13.390;2022-12-11T04:39:09;-2.10;86.03
57709;SHT35;42558;52.388;13.390;2022-12-11T04:41:38;-2.09;85.97
57709;SHT35;42558;52.388;13.390;2022-12-11T04:44:06;-2.06;86.10
57709;SHT35;42558;52.388;13.390;2022-12-11T04:46:34;-2.07;85.97
57709;SHT35;42558;52.388;13.390;2022-12-11T04:49:03;-2.15;86.00
57709;SHT35;42558;52.388;13.390;2022-12-11T04:51:31;-2.14;86.10
57709;SHT35;42558;52.388;13.390;2022-12-11T04:54:00;-2.14;86.15
57709;SHT35;42558;52.388;13.390;2022-12-11T04:56:28;-2.20;86.19
57709;SHT35;42558;52.388;13.390;2022-12-11T04:58:56;-2.19;86.42
57709;SHT35;42558;52.388;13.390;2022-12-11T05:01:25;-2.19;86.49
57709;SHT35;42558;52.388;13.390;2022-12-11T05:03:53;-2.17;86.50
57709;SHT35;42558;52.388;13.390;2022-12-11T05:06:22;-2.15;86.51
57709;SHT35;42558;52.388;13.390;2022-12-11T05:08:50;-2.16;86.60
57709;SHT35;42558;52.388;13.390;2022-12-11T05:11:19;-2.16;86.67
57709;SHT35;42558;52.388;13.390;2022-12-11T05:13:50;-2.15;86.75
57709;SHT35;42558;52.388;13.390;2022-12-11T05:16:19;-2.12;86.76
57709;SHT35;42558;52.388;13.390;2022-12-11T05:18:47;-2.13;86.71
57709;SHT35;42558;52.388;13.390;2022-12-11T05:21:15;-2.15;86.73
57709;SHT35;42558;52.388;13.390;2022-12-11T05:23:44;-2.18;86.73
57709;SHT35;42558;52.388;13.390;2022-12-11T05:26:16;-2.16;86.76
57709;SHT35;42558;52.388;13.390;2022-12-11T05:28:51;-2.19;86.73
57709;SHT35;42558;52.388;13.390;2022-12-11T05:31:25;-2.18;86.78
57709;SHT35;42558;52.388;13.390;2022-12-11T05:33:56;-2.15;86.80
57709;SHT35;42558;52.388;13.390;2022-12-11T05:36:27;-2.11;86.76
57709;SHT35;42558;52.388;13.390;2022-12-11T05:39:01;-2.15;86.67
57709;SHT35;42558;52.388;13.390;2022-12-11T05:41:32;-2.14;86.72
57709;SHT35;42558;52.388;13.390;2022-12-11T05:44:02;-2.14;86.70
57709;SHT35;42558;52.388;13.390;2022-12-11T05:46:32;-2.11;86.77
57709;SHT35;42558;52.388;13.390;2022-12-11T05:49:02;-2.14;86.63
57709;SHT35;42558;52.388;13.390;2022-12-11T05:51:32;-2.12;86.68
57709;SHT35;42558;52.388;13.390;2022-12-11T05:54:03;-2.11;86.57
57709;SHT35;42558;52.388;13.390;2022-12-11T05:56:33;-2.11;86.57
57709;SHT35;42558;52.388;13.390;2022-12-11T05:59:05;-2.12;86.59
57709;SHT35;42558;52.388;13.390;2022-12-11T06:01:36;-2.09;86.73
57709;SHT35;42558;52.388;13.390;2022-12-11T06:04:10;-2.10;86.77
57709;SHT35;42558;52.388;13.390;2022-12-11T06:06:40;-2.12;86.77
57709;SHT35;42558;52.388;13.390;2022-12-11T06:09:12;-2.07;86.85
57709;SHT35;42558;52.388;13.390;2022-12-11T06:11:44;-2.12;86.84
57709;SHT35;42558;52.388;13.390;2022-12-11T06:14:13;-2.12;86.92
57709;SHT35;42558;52.388;13.390;2022-12-11T06:16:43;-2.11;86.91
57709;SHT35;42558;52.388;13.390;2022-12-11T06:19:14;-2.10;86.90
57709;SHT35;42558;52.388;13.390;2022-12-11T06:21:46;-2.06;86.98
57709;SHT35;42558;52.388;13.390;2022-12-11T06:24:17;-2.06;87.08
57709;SHT35;42558;52.388;13.390;2022-12-11T06:26:47;-2.05;87.09
57709;SHT35;42558;52.388;13.390;2022-12-11T06:29:16;-2.03;87.14
57709;SHT35;42558;52.388;13.390;2022-12-11T06:31:46;-2.03;87.15
57709;SHT35;42558;52.388;13.390;2022-12-11T06:34:16;-2.03;87.17
57709;SHT35;42558;52.388;13.390;2022-12-11T06:36:46;-2.02;87.24
57709;SHT35;42558;52.388;13.390;2022-12-11T06:39:15;-1.98;87.32
57709;SHT35;42558;52.388;13.390;2022-12-11T06:41:45;-1.97;87.29
57709;SHT35;42558;52.388;13.390;2022-12-11T06:44:15;-1.96;87.23
57709;SHT35;42558;52.388;13.390;2022-12-11T06:46:45;-1.95;87.19
57709;SHT35;42558;52.388;13.390;2022-12-11T06:49:14;-1.92;87.18
57709;SHT35;42558;52.388;13.390;2022-12-11T06:51:44;-1.91;87.02
57709;SHT35;42558;52.388;13.390;2022-12-11T06:54:14;-1.92;86.85
57709;SHT35;42558;52.388;13.390;2022-12-11T06:56:44;-1.92;86.76
57709;SHT35;42558;52.388;13.390;2022-12-11T06:59:13;-1.90;86.70
57709;SHT35;42558;52.388;13.390;2022-12-11T07:01:43;-1.91;86.60
57709;SHT35;42558;52.388;13.390;2022-12-11T07:04:14;-1.90;86.42
57709;SHT35;42558;52.388;13.390;2022-12-11T07:06:43;-1.90;86.23
57709;SHT35;42558;52.388;13.390;2022-12-11T07:09:15;-1.88;86.27
57709;SHT35;42558;52.388;13.390;2022-12-11T07:11:45;-1.92;85.74
57709;SHT35;42558;52.388;13.390;2022-12-11T07:14:21;-1.90;85.48
57709;SHT35;42558;52.388;13.390;2022-12-11T07:16:50;-1.94;84.61
57709;SHT35;42558;52.388;13.390;2022-12-11T07:19:21;-1.97;83.70
57709;SHT35;42558;52.388;13.390;2022-12-11T07:21:51;-1.95;83.39
57709;SHT35;42558;52.388;13.390;2022-12-11T07:24:21;-1.98;82.10
57709;SHT35;42558;52.388;13.390;2022-12-11T07:26:51;-2.04;80.78
57709;SHT35;42558;52.388;13.390;2022-12-11T07:29:21;-2.02;81.14
57709;SHT35;42558;52.388;13.390;2022-12-11T07:31:51;-2.03;81.04
57709;SHT35;42558;52.388;13.390;2022-12-11T07:34:21;-2.00;81.21
57709;SHT35;42558;52.388;13.390;2022-12-11T07:36:50;-1.99;81.12
57709;SHT35;42558;52.388;13.390;2022-12-11T07:39:21;-1.99;81.06
57709;SHT35;42558;52.388;13.390;2022-12-11T07:41:50;-2.02;80.90
57709;SHT35;42558;52.388;13.390;2022-12-11T07:44:20;-2.02;80.87
57709;SHT35;42558;52.388;13.390;2022-12-11T07:46:50;-2.02;80.69
57709;SHT35;42558;52.388;13.390;2022-12-11T07:49:20;-2.06;80.48
57709;SHT35;42558;52.388;13.390;2022-12-11T07:51:50;-2.09;80.50
57709;SHT35;42558;52.388;13.390;2022-12-11T07:54:19;-2.07;80.38
57709;SHT35;42558;52.388;13.390;2022-12-11T07:56:49;-2.06;80.39
57709;SHT35;42558;52.388;13.390;2022-12-11T07:59:22;-2.03;80.61
57709;SHT35;42558;52.388;13.390;2022-12-11T08:01:52;-2.03;80.72
57709;SHT35;42558;52.388;13.390;2022-12-11T08:04:21;-2.06;80.36
57709;SHT35;42558;52.388;13.390;2022-12-11T08:06:51;-2.10;80.10
57709;SHT35;42558;52.388;13.390;2022-12-11T08:09:21;-2.09;80.15
57709;SHT35;42558;52.388;13.390;2022-12-11T08:11:49;-2.09;80.04
57709;SHT35;42558;52.388;13.390;2022-12-11T08:14:18;-2.10;79.77
57709;SHT35;42558;52.388;13.390;2022-12-11T08:16:46;-2.08;79.80
57709;SHT35;42558;52.388;13.390;2022-12-11T08:19:15;-2.15;79.28
57709;SHT35;42558;52.388;13.390;2022-12-11T08:21:43;-2.18;79.35
57709;SHT35;42558;52.388;13.390;2022-12-11T08:24:12;-2.18;79.43
57709;SHT35;42558;52.388;13.390;2022-12-11T08:26:43;-2.16;79.95
57709;SHT35;42558;52.388;13.390;2022-12-11T08:29:12;-2.15;79.90
57709;SHT35;42558;52.388;13.390;2022-12-11T08:31:40;-2.17;79.75
57709;SHT35;42558;52.388;13.390;2022-12-11T08:34:08;-2.22;79.46
57709;SHT35;42558;52.388;13.390;2022-12-11T08:36:42;-2.17;80.01
57709;SHT35;42558;52.388;13.390;2022-12-11T08:39:12;-2.11;80.08
57709;SHT35;42558;52.388;13.390;2022-12-11T08:41:42;-2.11;79.91
57709;SHT35;42558;52.388;13.390;2022-12-11T08:44:12;-2.15;79.48
57709;SHT35;42558;52.388;13.390;2022-12-11T08:46:45;-2.12;79.93
57709;SHT35;42558;52.388;13.390;2022-12-11T08:49:15;-2.04;80.06
57709;SHT35;42558;52.388;13.390;2022-12-11T08:51:45;-2.08;79.40
57709;SHT35;42558;52.388;13.390;2022-12-11T08:54:14;-2.13;79.35
57709;SHT35;42558;52.388;13.390;2022-12-11T08:56:42;-2.13;79.49
57709;SHT35;42558;52.388;13.390;2022-12-11T08:59:11;-2.13;79.57
57709;SHT35;42558;52.388;13.390;2022-12-11T09:01:39;-2.08;79.96
57709;SHT35;42558;52.388;13.390;2022-12-11T09:04:07;-2.05;79.61
57709;SHT35;42558;52.388;13.390;2022-12-11T09:06:36;-2.08;79.44
57709;SHT35;42558;52.388;13.390;2022-12-11T09:09:04;-2.07;79.76
57709;SHT35;42558;52.388;13.390;2022-12-11T09:11:34;-2.02;79.96
57709;SHT35;42558;52.388;13.390;2022-12-11T09:14:04;-2.01;79.71
57709;SHT35;42558;52.388;13.390;2022-12-11T09:16:38;-1.96;79.84
57709;SHT35;42558;52.388;13.390;2022-12-11T09:19:12;-1.98;79.66
57709;SHT35;42558;52.388;13.390;2022-12-11T09:21:43;-1.96;79.77
57709;SHT35;42558;52.388;13.390;2022-12-11T09:24:13;-1.91;79.69
57709;SHT35;42558;52.388;13.390;2022-12-11T09:26:43;-1.87;79.86
57709;SHT35;42558;52.388;13.390;2022-12-11T09:29:15;-1.93;79.69
57709;SHT35;42558;52.388;13.390;2022-12-11T09:31:46;-1.90;79.77
57709;SHT35;42558;52.388;13.390;2022-12-11T09:34:16;-1.87;79.78
57709;SHT35;42558;52.388;13.390;2022-12-11T09:36:47;-1.84;79.94
57709;SHT35;42558;52.388;13.390;2022-12-11T09:39:16;-1.85;80.11
57709;SHT35;42558;52.388;13.390;2022-12-11T09:45:09;-1.89;79.89
57709;SHT35;42558;52.388;13.390;2022-12-11T09:47:43;-1.88;79.74
57709;SHT35;42558;52.388;13.390;2022-12-11T09:50:22;-1.82;79.82
57709;SHT35;42558;52.388;13.390;2022-12-11T09:53:13;-1.78;79.91
57709;SHT35;42558;52.388;13.390;2022-12-11T09:56:05;-1.79;79.79
57709;SHT35;42558;52.388;13.390;2022-12-11T10:02:01;-1.81;79.92
57709;SHT35;42558;52.388;13.390;2022-12-11T10:05:25;-1.73;79.84
57709;SHT35;42558;52.388;13.390;2022-12-11T10:11:49;-1.68;79.42
57709;SHT35;42558;52.388;13.390;2022-12-11T10:17:52;-1.72;79.69
57709;SHT35;42558;52.388;13.390;2022-12-11T10:20:33;-1.72;79.49
57709;SHT35;42558;52.388;13.390;2022-12-11T10:23:10;-1.77;79.38
57709;SHT35;42558;52.388;13.390;2022-12-11T10:28:44;-1.69;79.60
57709;SHT35;42558;52.388;13.390;2022-12-11T10:34:07;-1.67;79.43
57709;SHT35;42558;52.388;13.390;2022-12-11T10:36:43;-1.64;79.46
57709;SHT35;42558;52.388;13.390;2022-12-11T10:39:14;-1.74;79.23
57709;SHT35;42558;52.388;13.390;2022-12-11T10:41:51;-1.64;79.62
57709;SHT35;42558;52.388;13.390;2022-12-11T10:47:01;-1.59;79.24
57709;SHT35;42558;52.388;13.390;2022-12-11T10:49:42;-1.68;79.36
57709;SHT35;42558;52.388;13.390;2022-12-11T10:52:24;-1.65;79.49
57709;SHT35;42558;52.388;13.390;2022-12-11T10:55:06;-1.71;79.46
57709;SHT35;42558;52.388;13.390;2022-12-11T10:58:00;-1.77;79.72
57709;SHT35;42558;52.388;13.390;2022-12-11T11:00:36;-1.74;79.81
57709;SHT35;42558;52.388;13.390;2022-12-11T11:03:22;-1.68;80.00
57709;SHT35;42558;52.388;13.390;2022-12-11T11:06:02;-1.67;79.85
57709;SHT35;42558;52.388;13.390;2022-12-11T11:08:47;-1.64;80.04
57709;SHT35;42558;52.388;13.390;2022-12-11T11:11:23;-1.64;80.01
57709;SHT35;42558;52.388;13.390;2022-12-11T11:16:50;-1.65;80.03
57709;SHT35;42558;52.388;13.390;2022-12-11T11:19:33;-1.63;80.06
57709;SHT35;42558;52.388;13.390;2022-12-11T11:22:05;-1.61;80.05
57709;SHT35;42558;52.388;13.390;2022-12-11T11:27:30;-1.59;80.19
57709;SHT35;42558;52.388;13.390;2022-12-11T11:30:17;-1.57;80.09
57709;SHT35;42558;52.388;13.390;2022-12-11T11:32:57;-1.55;79.88
57709;SHT35;42558;52.388;13.390;2022-12-11T11:35:51;-1.52;79.93
57709;SHT35;42558;52.388;13.390;2022-12-11T11:38:40;-1.56;79.76
57709;SHT35;42558;52.388;13.390;2022-12-11T11:41:26;-1.52;79.77
57709;SHT35;42558;52.388;13.390;2022-12-11T11:44:07;-1.44;79.70
57709;SHT35;42558;52.388;13.390;2022-12-11T11:46:50;-1.43;79.82
57709;SHT35;42558;52.388;13.390;2022-12-11T11:49:32;-1.35;79.90
57709;SHT35;42558;52.388;13.390;2022-12-11T11:52:28;-1.49;79.40
57709;SHT35;42558;52.388;13.390;2022-12-11T11:55:32;-1.57;79.66
57709;SHT35;42558;52.388;13.390;2022-12-11T11:58:14;-1.54;79.72
57709;SHT35;42558;52.388;13.390;2022-12-11T12:00:57;-1.53;80.09
57709;SHT35;42558;52.388;13.390;2022-12-11T12:03:27;-1.46;80.03
57709;SHT35;42558;52.388;13.390;2022-12-11T12:15:33;-1.47;79.68
57709;SHT35;42558;52.388;13.390;2022-12-11T12:18:58;-1.50;79.83
57709;SHT35;42558;52.388;13.390;2022-12-11T12:21:50;-1.45;80.01
57709;SHT35;42558;52.388;13.390;2022-12-11T12:27:27;-1.40;79.78
57709;SHT35;42558;52.388;13.390;2022-12-11T12:30:21;-1.37;79.94
57709;SHT35;42558;52.388;13.390;2022-12-11T12:33:05;-1.34;79.74
57709;SHT35;42558;52.388;13.390;2022-12-11T12:41:54;-1.29;79.57
57709;SHT35;42558;52.388;13.390;2022-12-11T12:44:53;-1.32;79.64
57709;SHT35;42558;52.388;13.390;2022-12-11T12:47:32;-1.36;79.83
57709;SHT35;42558;52.388;13.390;2022-12-11T12:50:09;-1.33;79.67
57709;SHT35;42558;52.388;13.390;2022-12-11T12:52:46;-1.29;79.74
57709;SHT35;42558;52.388;13.390;2022-12-11T12:55:24;-1.39;79.47
57709;SHT35;42558;52.388;13.390;2022-12-11T12:58:01;-1.38;79.78
57709;SHT35;42558;52.388;13.390;2022-12-11T13:00:35;-1.40;79.64
57709;SHT35;42558;52.388;13.390;2022-12-11T13:03:13;-1.39;79.64
57709;SHT35;42558;52.388;13.390;2022-12-11T13:08:31;-1.39;79.65
57709;SHT35;42558;52.388;13.390;2022-12-11T13:11:15;-1.38;79.79
57709;SHT35;42558;52.388;13.390;2022-12-11T13:13:47;-1.36;79.86
57709;SHT35;42558;52.388;13.390;2022-12-11T13:16:36;-1.40;79.93
57709;SHT35;42558;52.388;13.390;2022-12-11T13:19:16;-1.42;79.77
57709;SHT35;42558;52.388;13.390;2022-12-11T13:27:45;-1.33;79.57
57709;SHT35;42558;52.388;13.390;2022-12-11T13:30:20;-1.39;79.78
57709;SHT35;42558;52.388;13.390;2022-12-11T13:38:46;-1.40;80.43
57709;SHT35;42558;52.388;13.390;2022-12-11T13:41:21;-1.42;80.13
57709;SHT35;42558;52.388;13.390;2022-12-11T13:43:53;-1.44;80.03
57709;SHT35;42558;52.388;13.390;2022-12-11T13:46:25;-1.46;80.18
57709;SHT35;42558;52.388;13.390;2022-12-11T13:49:01;-1.50;80.38
57709;SHT35;42558;52.388;13.390;2022-12-11T13:51:35;-1.50;80.62
57709;SHT35;42558;52.388;13.390;2022-12-11T13:54:14;-1.51;80.64
57709;SHT35;42558;52.388;13.390;2022-12-11T13:56:57;-1.51;80.68
57709;SHT35;42558;52.388;13.390;2022-12-11T13:59:40;-1.51;80.65
57709;SHT35;42558;52.388;13.390;2022-12-11T14:05:01;-1.51;80.98
57709;SHT35;42558;52.388;13.390;2022-12-11T14:07:42;-1.50;80.90
57709;SHT35;42558;52.388;13.390;2022-12-11T14:12:52;-1.57;81.10
57709;SHT35;42558;52.388;13.390;2022-12-11T14:15:27;-1.52;81.29
57709;SHT35;42558;52.388;13.390;2022-12-11T14:17:58;-1.52;81.37
57709;SHT35;42558;52.388;13.390;2022-12-11T14:20:28;-1.51;81.41
57709;SHT35;42558;52.388;13.390;2022-12-11T14:23:05;-1.51;81.40
57709;SHT35;42558;52.388;13.390;2022-12-11T14:25:55;-1.50;81.36
57709;SHT35;42558;52.388;13.390;2022-12-11T14:28:27;-1.51;81.36
57709;SHT35;42558;52.388;13.390;2022-12-11T14:31:06;-1.56;81.53
57709;SHT35;42558;52.388;13.390;2022-12-11T14:33:37;-1.56;81.70
57709;SHT35;42558;52.388;13.390;2022-12-11T14:36:13;-1.56;81.74
57709;SHT35;42558;52.388;13.390;2022-12-11T14:38:51;-1.56;81.76
57709;SHT35;42558;52.388;13.390;2022-12-11T14:41:33;-1.58;81.78
57709;SHT35;42558;52.388;13.390;2022-12-11T14:44:14;-1.59;81.78
57709;SHT35;42558;52.388;13.390;2022-12-11T14:46:51;-1.56;81.83
57709;SHT35;42558;52.388;13.390;2022-12-11T14:51:59;-1.59;81.99
57709;SHT35;42558;52.388;13.390;2022-12-11T14:54:35;-1.63;82.07
57709;SHT35;42558;52.388;13.390;2022-12-11T14:57:20;-1.69;82.33
57709;SHT35;42558;52.388;13.390;2022-12-11T14:59:54;-1.68;82.41
57709;SHT35;42558;52.388;13.390;2022-12-11T15:02:30;-1.67;82.50
57709;SHT35;42558;52.388;13.390;2022-12-11T15:07:42;-1.67;82.69
57709;SHT35;42558;52.388;13.390;2022-12-11T15:10:33;-1.69;82.67
57709;SHT35;42558;52.388;13.390;2022-12-11T15:13:28;-1.70;82.80
57709;SHT35;42558;52.388;13.390;2022-12-11T15:16:01;-1.70;82.95
57709;SHT35;42558;52.388;13.390;2022-12-11T15:18:33;-1.72;83.01
57709;SHT35;42558;52.388;13.390;2022-12-11T15:21:08;-1.72;83.09
57709;SHT35;42558;52.388;13.390;2022-12-11T15:29:26;-1.71;83.17
57709;SHT35;42558;52.388;13.390;2022-12-11T15:39:54;-1.66;83.30
57709;SHT35;42558;52.388;13.390;2022-12-11T15:42:36;-1.66;83.23
57709;SHT35;42558;52.388;13.390;2022-12-11T15:45:14;-1.67;83.20
57709;SHT35;42558;52.388;13.390;2022-12-11T15:47:48;-1.69;83.20
57709;SHT35;42558;52.388;13.390;2022-12-11T15:52:51;-1.67;83.31
57709;SHT35;42558;52.388;13.390;2022-12-11T15:55:25;-1.66;83.32
57709;SHT35;42558;52.388;13.390;2022-12-11T15:58:06;-1.67;83.42
57709;SHT35;42558;52.388;13.390;2022-12-11T16:00:43;-1.67;83.47
57709;SHT35;42558;52.388;13.390;2022-12-11T16:03:15;-1.70;83.54
57709;SHT35;42558;52.388;13.390;2022-12-11T16:05:49;-1.73;83.64
57709;SHT35;42558;52.388;13.390;2022-12-11T16:08:21;-1.75;83.71
57709;SHT35;42558;52.388;13.390;2022-12-11T16:10:53;-1.74;83.74
57709;SHT35;42558;52.388;13.390;2022-12-11T16:13:23;-1.74;83.78
57709;SHT35;42558;52.388;13.390;2022-12-11T16:15:53;-1.73;83.86
57709;SHT35;42558;52.388;13.390;2022-12-11T16:18:23;-1.74;83.83
57709;SHT35;42558;52.388;13.390;2022-12-11T16:20:54;-1.74;83.91
57709;SHT35;42558;52.388;13.390;2022-12-11T16:23:24;-1.74;83.95
57709;SHT35;42558;52.388;13.390;2022-12-11T16:25:54;-1.74;84.05
57709;SHT35;42558;52.388;13.390;2022-12-11T16:28:24;-1.75;84.15
57709;SHT35;42558;52.388;13.390;2022-12-11T16:30:53;-1.74;84.27
57709;SHT35;42558;52.388;13.390;2022-12-11T16:33:23;-1.72;84.33
57709;SHT35;42558;52.388;13.390;2022-12-11T16:35:53;-1.76;84.44
57709;SHT35;42558;52.388;13.390;2022-12-11T16:38:23;-1.79;84.56
57709;SHT35;42558;52.388;13.390;2022-12-11T16:40:59;-1.79;84.73
57709;SHT35;42558;52.388;13.390;2022-12-11T16:43:31;-1.76;84.82
57709;SHT35;42558;52.388;13.390;2022-12-11T16:46:01;-1.78;84.93
57709;SHT35;42558;52.388;13.390;2022-12-11T16:48:32;-1.79;84.97
57709;SHT35;42558;52.388;13.390;2022-12-11T16:51:01;-1.78;85.01
57709;SHT35;42558;52.388;13.390;2022-12-11T16:53:31;-1.77;85.00
57709;SHT35;42558;52.388;13.390;2022-12-11T16:56:00;-1.76;85.05
57709;SHT35;42558;52.388;13.390;2022-12-11T16:58:28;-1.77;84.96
57709;SHT35;42558;52.388;13.390;2022-12-11T17:00:57;-1.79;84.91
57709;SHT35;42558;52.388;13.390;2022-12-11T17:03:28;-1.79;84.98
57709;SHT35;42558;52.388;13.390;2022-12-11T17:05:59;-1.79;85.00
57709;SHT35;42558;52.388;13.390;2022-12-11T17:08:28;-1.79;85.04
57709;SHT35;42558;52.388;13.390;2022-12-11T17:10:58;-1.78;85.21
57709;SHT35;42558;52.388;13.390;2022-12-11T17:13:32;-1.79;85.11
57709;SHT35;42558;52.388;13.390;2022-12-11T17:16:05;-1.77;85.20
57709;SHT35;42558;52.388;13.390;2022-12-11T17:18:38;-1.72;85.31
57709;SHT35;42558;52.388;13.390;2022-12-11T17:21:11;-1.73;85.11
57709;SHT35;42558;52.388;13.390;2022-12-11T17:23:44;-1.72;85.10
57709;SHT35;42558;52.388;13.390;2022-12-11T17:26:14;-1.73;85.06
57709;SHT35;42558;52.388;13.390;2022-12-11T17:28:45;-1.71;85.11
57709;SHT35;42558;52.388;13.390;2022-12-11T17:31:15;-1.72;85.20
57709;SHT35;42558;52.388;13.390;2022-12-11T17:33:47;-1.73;85.17
57709;SHT35;42558;52.388;13.390;2022-12-11T17:36:18;-1.73;85.28
57709;SHT35;42558;52.388;13.390;2022-12-11T17:38:50;-1.71;85.30